Time;durP1;ratioP1;P1;durP2;ratioP2;P2;SDS_P1;SDS_P2;PMS_P1;PMS_P2;Temp;Humidity;BMP_temperature;BMP_pressure;BME280_temperature;BME280_humidity;BME280_pressure;Samples;Min_cycle;Max_cycle;Signal;HPM_P1;HPM_P2
2021/03/02 00:00:56;;;;;;;52.17;22.07;;;;;;;-0.51;87.56;100468.50;4995638;28;20073;-69
2021/03/02 00:03:22;;;;;;;45.70;19.67;;;;;;;-0.48;87.81;100471.16;5016913;28;20026;-68
2021/03/02 00:05:47;;;;;;;43.33;19.37;;;;;;;-0.52;87.67;100471.78;5017871;28;20064;-68
2021/03/02 00:08:16;;;;;;;55.13;21.63;;;;;;;-0.52;87.41;100474.31;5016578;28;20105;-68
2021/03/02 00:10:42;;;;;;;43.47;19.23;;;;;;;-0.60;87.46;100473.91;5016965;28;20041;-68
2021/03/02 00:13:11;;;;;;;44.70;17.67;;;;;;;-0.57;87.73;100470.66;5016902;28;20038;-68
2021/03/02 00:15:38;;;;;;;42.83;18.40;;;;;;;-0.53;87.81;100477.59;5018442;28;20061;-67
2021/03/02 00:18:07;;;;;;;45.00;18.13;;;;;;;-0.55;87.57;100467.44;5014797;28;20381;-68
2021/03/02 00:20:35;;;;;;;42.67;18.10;;;;;;;-0.55;87.49;100472.47;5015416;28;20278;-67
2021/03/02 00:23:06;;;;;;;39.33;17.30;;;;;;;-0.59;87.38;100470.56;5016913;28;20036;-68
2021/03/02 00:25:37;;;;;;;46.03;19.90;;;;;;;-0.62;87.63;100472.94;5018071;28;20032;-68
2021/03/02 00:28:07;;;;;;;40.13;16.53;;;;;;;-0.63;87.39;100467.78;5017518;28;20375;-67
2021/03/02 00:30:34;;;;;;;49.80;18.50;;;;;;;-0.62;87.61;100474.56;5017820;28;20034;-68
2021/03/02 00:33:01;;;;;;;39.90;17.77;;;;;;;-0.58;87.41;100473.97;5016402;28;20036;-69
2021/03/02 00:35:27;;;;;;;44.87;17.80;;;;;;;-0.59;86.54;100477.25;5018129;28;20381;-69
2021/03/02 00:37:52;;;;;;;48.63;18.07;;;;;;;-0.66;86.38;100473.53;5015762;28;20021;-68
2021/03/02 00:40:18;;;;;;;46.30;18.10;;;;;;;-0.69;86.30;100487.63;5017388;28;20033;-68
2021/03/02 00:42:44;;;;;;;49.37;20.30;;;;;;;-0.77;86.53;100481.28;5016626;28;20033;-68
2021/03/02 00:45:10;;;;;;;44.80;18.57;;;;;;;-0.75;86.86;100484.75;4996055;28;20327;-68
2021/03/02 00:47:36;;;;;;;42.00;17.57;;;;;;;-0.73;87.29;100479.03;5015399;28;20052;-68
2021/03/02 00:50:03;;;;;;;41.57;18.20;;;;;;;-0.69;87.21;100483.47;5017250;28;20092;-68
2021/03/02 00:52:29;;;;;;;45.47;18.87;;;;;;;-0.66;87.40;100477.72;5017504;28;20030;-67
2021/03/02 00:54:54;;;;;;;40.47;19.33;;;;;;;-0.61;87.20;100477.19;5016229;28;20080;-68
2021/03/02 00:57:19;;;;;;;47.90;19.60;;;;;;;-0.56;87.33;100470.75;5015726;28;20069;-68
2021/03/02 00:59:45;;;;;;;44.03;18.47;;;;;;;-0.52;87.12;100466.75;5016501;28;20038;-69
2021/03/02 01:02:10;;;;;;;46.50;17.53;;;;;;;-0.50;86.98;100462.66;5017278;28;20121;-69
2021/03/02 01:04:36;;;;;;;46.47;18.40;;;;;;;-0.40;86.81;100457.31;5016443;28;20033;-68
2021/03/02 01:07:03;;;;;;;42.33;19.50;;;;;;;-0.41;86.49;100457.22;4997252;28;20026;-68
2021/03/02 01:09:28;;;;;;;42.17;16.10;;;;;;;-0.43;86.37;100456.31;5014764;28;20064;-68
2021/03/02 01:11:53;;;;;;;44.63;18.43;;;;;;;-0.46;86.75;100460.38;4996878;28;20038;-67
2021/03/02 01:14:19;;;;;;;37.97;16.50;;;;;;;-0.45;86.50;100453.69;5016128;28;20029;-68
2021/03/02 01:16:44;;;;;;;39.77;17.67;;;;;;;-0.49;86.57;100445.09;5016354;28;20141;-69
2021/03/02 01:19:10;;;;;;;39.33;17.13;;;;;;;-0.51;86.68;100440.78;5017227;28;20395;-70
2021/03/02 01:21:35;;;;;;;42.93;18.57;;;;;;;-0.61;86.71;100428.47;5017545;28;20026;-69
2021/03/02 01:24:01;;;;;;;50.00;20.20;;;;;;;-0.54;87.10;100438.06;5014195;28;20121;-67
2021/03/02 01:26:26;;;;;;;45.73;18.43;;;;;;;-0.53;86.73;100438.16;5016668;28;20034;-69
2021/03/02 01:28:51;;;;;;;38.97;18.07;;;;;;;-0.62;86.44;100440.19;5016335;28;20033;-69
2021/03/02 01:31:17;;;;;;;37.63;15.60;;;;;;;-0.62;86.61;100432.63;5016923;28;20041;-69
2021/03/02 01:33:42;;;;;;;52.47;20.40;;;;;;;-0.63;87.26;100432.53;5016070;28;20030;-69
2021/03/02 01:36:08;;;;;;;44.37;19.10;;;;;;;-0.66;87.24;100429.88;5015515;28;20037;-68
2021/03/02 01:38:33;;;;;;;45.53;18.50;;;;;;;-0.68;87.36;100431.44;5016454;28;20033;-68
2021/03/02 01:40:59;;;;;;;47.13;17.90;;;;;;;-0.71;87.36;100429.63;5016556;28;20051;-68
2021/03/02 01:43:24;;;;;;;43.83;17.70;;;;;;;-0.75;87.49;100427.72;5016169;28;20052;-68
2021/03/02 01:45:49;;;;;;;49.57;17.73;;;;;;;-0.80;87.82;100423.19;5014868;28;20034;-67
2021/03/02 01:48:15;;;;;;;41.40;16.60;;;;;;;-0.89;87.71;100418.53;5016281;28;20065;-68
2021/03/02 01:50:40;;;;;;;40.23;16.93;;;;;;;-0.90;87.50;100420.97;5016420;28;20133;-70
2021/03/02 01:53:06;;;;;;;47.57;18.60;;;;;;;-0.94;87.94;100414.91;5015981;28;20038;-68
2021/03/02 01:55:31;;;;;;;46.10;17.23;;;;;;;-0.98;87.71;100418.06;5014875;28;20069;-68
2021/03/02 01:57:57;;;;;;;42.67;18.20;;;;;;;-0.98;88.34;100408.81;5016871;28;20079;-68
2021/03/02 02:00:33;;;;;;;44.70;19.13;;;;;;;-0.88;88.11;100417.75;5016117;28;20036;-68
2021/03/02 02:03:17;;;;;;;42.83;18.67;;;;;;;-0.89;88.28;100410.97;5015775;28;20382;-68
2021/03/02 02:06:30;;;;;;;38.87;17.80;;;;;;;-0.91;88.13;100412.56;5012684;28;20101;-69
2021/03/02 02:09:21;;;;;;;43.00;19.10;;;;;;;-0.87;88.59;100411.06;5008172;28;20095;-68
2021/03/02 02:12:07;;;;;;;49.87;20.60;;;;;;;-0.87;88.69;100404.38;5014430;28;20032;-68
2021/03/02 02:15:21;;;;;;;51.17;19.60;;;;;;;-0.80;88.82;100395.50;4997663;28;20057;-68
2021/03/02 02:17:55;;;;;;;48.80;18.47;;;;;;;-0.82;88.83;100394.56;5014509;28;20316;-68
2021/03/02 02:20:39;;;;;;;47.30;19.05;;;;;;;-0.86;88.48;100391.03;5019251;28;20064;-69
2021/03/02 02:23:13;;;;;;;53.53;21.53;;;;;;;-0.79;88.52;100390.56;5018779;28;20393;-69
2021/03/02 02:26:18;;;;;;;47.93;18.63;;;;;;;-0.84;88.45;100388.56;5016574;28;20032;-67
2021/03/02 02:28:45;;;;;;;50.47;19.40;;;;;;;-0.96;88.60;100389.66;5017172;28;20068;-68
2021/03/02 02:31:11;;;;;;;42.70;19.27;;;;;;;-0.94;88.73;100383.06;5018239;28;20041;-68
2021/03/02 02:33:39;;;;;;;45.37;18.63;;;;;;;-0.93;88.94;100387.28;5019942;28;20033;-68
2021/03/02 02:36:09;;;;;;;47.07;20.00;;;;;;;-0.91;88.70;100392.41;5020635;28;20029;-68
2021/03/02 02:38:40;;;;;;;57.00;20.97;;;;;;;-0.95;88.75;100388.88;5018554;28;20108;-68
2021/03/02 02:41:05;;;;;;;46.53;19.93;;;;;;;-1.00;88.72;100387.75;5019622;28;20439;-68
2021/03/02 02:43:32;;;;;;;46.40;18.73;;;;;;;-1.05;88.69;100391.66;5018767;28;20136;-67
2021/03/02 02:45:58;;;;;;;43.03;18.80;;;;;;;-1.08;88.57;100389.00;5020582;28;20116;-69
2021/03/02 02:48:24;;;;;;;51.63;20.00;;;;;;;-1.13;88.18;100389.50;5018270;28;20136;-68
2021/03/02 02:50:52;;;;;;;44.60;20.00;;;;;;;-1.12;88.56;100398.78;5017660;28;20083;-68
2021/03/02 02:53:19;;;;;;;43.70;18.53;;;;;;;-1.21;88.59;100390.72;5019567;28;20117;-68
2021/03/02 02:55:49;;;;;;;40.33;17.47;;;;;;;-1.26;88.68;100392.13;5019726;28;20248;-68
2021/03/02 02:58:18;;;;;;;47.40;19.53;;;;;;;-1.28;89.01;100398.72;5017562;28;20038;-68
2021/03/02 03:00:47;;;;;;;48.60;19.10;;;;;;;-1.30;88.87;100401.16;5001427;28;20030;-68
2021/03/02 03:03:16;;;;;;;51.30;19.37;;;;;;;-1.34;88.75;100394.22;5016373;28;20029;-68
2021/03/02 03:05:47;;;;;;;50.47;20.37;;;;;;;-1.33;88.70;100392.56;5016423;28;20080;-68
2021/03/02 03:08:17;;;;;;;46.27;19.83;;;;;;;-1.42;88.46;100396.31;4999685;28;20385;-68
2021/03/02 03:10:44;;;;;;;46.17;17.77;;;;;;;-1.47;88.86;100399.31;5018238;28;20171;-68
2021/03/02 03:13:13;;;;;;;40.30;17.80;;;;;;;-1.45;88.37;100393.63;5019485;28;20030;-68
2021/03/02 03:15:44;;;;;;;41.07;17.23;;;;;;;-1.48;88.62;100390.91;5015505;28;20044;-68
2021/03/02 03:18:11;;;;;;;51.83;18.83;;;;;;;-1.51;88.69;100397.41;5014090;28;20052;-69
2021/03/02 03:20:37;;;;;;;47.77;19.70;;;;;;;-1.56;88.04;100396.28;5016315;28;20453;-68
2021/03/02 03:23:05;;;;;;;47.53;19.87;;;;;;;-1.50;88.27;100392.50;5019806;28;20124;-69
2021/03/02 03:25:32;;;;;;;43.03;17.83;;;;;;;-1.53;88.48;100399.00;5019110;28;20091;-66
2021/03/02 03:28:01;;;;;;;43.77;19.60;;;;;;;-1.55;88.77;100390.47;5016780;28;20042;-66
2021/03/02 03:30:30;;;;;;;43.93;17.60;;;;;;;-1.52;88.55;100393.16;5017787;28;20098;-66
2021/03/02 03:32:58;;;;;;;45.87;18.57;;;;;;;-1.51;88.75;100395.78;5018400;28;20116;-66
2021/03/02 03:35:25;;;;;;;48.13;21.73;;;;;;;-1.52;88.51;100399.06;5017592;28;20304;-66
2021/03/02 03:37:51;;;;;;;54.87;21.60;;;;;;;-1.51;89.00;100390.75;4999911;28;20136;-67
2021/03/02 03:40:17;;;;;;;50.13;18.93;;;;;;;-1.51;88.60;100384.84;5018809;28;20087;-66
2021/03/02 03:42:43;;;;;;;39.50;21.47;;;;;;;-1.48;88.27;100390.03;4998145;28;20042;-67
2021/03/02 03:45:09;;;;;;;53.93;21.83;;;;;;;-1.47;88.00;100386.75;5017941;28;20029;-66
2021/03/02 03:47:39;;;;;;;39.73;17.27;;;;;;;-1.41;88.42;100389.63;5014220;28;20085;-65
2021/03/02 03:50:06;;;;;;;46.27;19.23;;;;;;;-1.45;88.10;100388.59;5001990;28;20029;-64
2021/03/02 03:52:40;;;;;;;43.30;17.47;;;;;;;-1.43;88.53;100389.53;5001997;28;20030;-65
2021/03/02 03:55:09;;;;;;;53.92;18.90;;;;;;;-1.41;88.59;100387.13;4997938;28;20044;-65
2021/03/02 03:57:35;;;;;;;49.27;18.17;;;;;;;-1.45;88.52;100377.66;5001826;28;20387;-64
2021/03/02 04:00:03;;;;;;;45.80;18.30;;;;;;;-1.32;88.30;100392.66;5019341;28;20046;-65
2021/03/02 04:02:30;;;;;;;43.50;19.47;;;;;;;-1.32;88.35;100390.16;5018419;28;20036;-65
2021/03/02 04:04:57;;;;;;;48.70;19.30;;;;;;;-1.28;88.45;100386.16;5000948;28;20076;-65
2021/03/02 04:07:26;;;;;;;51.73;18.10;;;;;;;-1.22;88.30;100397.41;5017024;28;20029;-65
2021/03/02 04:09:53;;;;;;;43.77;18.17;;;;;;;-1.15;88.40;100381.88;5014271;28;20033;-64
2021/03/02 04:12:19;;;;;;;54.10;19.73;;;;;;;-1.06;88.35;100379.84;4999989;28;20018;-64
2021/03/02 04:14:45;;;;;;;49.60;17.87;;;;;;;-1.00;88.15;100385.25;5011394;28;20091;-64
2021/03/02 04:17:10;;;;;;;57.93;19.50;;;;;;;-0.93;88.46;100387.28;5016604;28;20096;-60
2021/03/02 04:19:37;;;;;;;47.13;18.63;;;;;;;-0.85;88.16;100391.91;5018796;28;20037;-64
2021/03/02 04:22:03;;;;;;;48.97;20.77;;;;;;;-0.83;88.32;100390.31;5016520;28;20041;-64
2021/03/02 04:24:29;;;;;;;52.83;19.17;;;;;;;-0.76;87.93;100387.34;5016303;28;20379;-64
2021/03/02 04:26:56;;;;;;;52.60;18.10;;;;;;;-0.58;87.57;100394.22;5018161;28;20034;-64
2021/03/02 04:29:21;;;;;;;51.47;18.77;;;;;;;-0.59;87.33;100387.47;5001241;28;20088;-64
2021/03/02 04:31:47;;;;;;;51.87;20.40;;;;;;;-0.54;87.32;100392.75;5016148;28;20022;-68
2021/03/02 04:34:12;;;;;;;57.90;22.00;;;;;;;-0.54;86.57;100386.06;5016136;28;20014;-68
2021/03/02 04:36:37;;;;;;;53.27;20.13;;;;;;;-0.50;86.89;100382.03;5015630;28;20021;-68
2021/03/02 04:39:03;;;;;;;55.60;20.50;;;;;;;-0.50;86.82;100382.91;5014478;28;20076;-68
2021/03/02 04:41:29;;;;;;;49.70;18.83;;;;;;;-0.45;86.99;100385.66;5016798;28;20026;-68
2021/03/02 04:43:54;;;;;;;52.60;19.03;;;;;;;-0.42;86.84;100374.91;5015898;28;20018;-68
2021/03/02 04:46:20;;;;;;;51.53;18.97;;;;;;;-0.38;86.93;100377.63;5018176;28;20391;-68
2021/03/02 04:48:46;;;;;;;54.07;19.97;;;;;;;-0.34;87.10;100374.50;5016307;28;20037;-68
2021/03/02 04:51:12;;;;;;;51.47;20.17;;;;;;;-0.34;87.08;100369.44;5015476;28;20030;-68
2021/03/02 04:53:38;;;;;;;65.93;23.83;;;;;;;-0.27;87.21;100376.56;5015889;28;20037;-68
2021/03/02 04:56:03;;;;;;;56.97;20.53;;;;;;;-0.24;87.38;100370.81;5018217;28;20256;-68
2021/03/02 04:58:29;;;;;;;56.13;22.00;;;;;;;-0.14;87.24;100373.88;5016551;28;20110;-68
2021/03/02 05:00:54;;;;;;;49.53;19.90;;;;;;;-0.09;87.39;100374.13;5016619;28;20263;-67
2021/03/02 05:03:19;;;;;;;60.07;20.27;;;;;;;-0.05;86.87;100384.44;5016664;28;20029;-68
2021/03/02 05:05:45;;;;;;;46.70;18.97;;;;;;;0.01;87.04;100378.81;5017335;28;20070;-68
2021/03/02 05:08:10;;;;;;;67.87;25.03;;;;;;;-0.03;87.22;100380.34;5016203;28;20036;-68
2021/03/02 05:10:35;;;;;;;69.97;26.40;;;;;;;0.16;86.78;100384.66;4998775;28;20030;-68
2021/03/02 05:13:01;;;;;;;85.30;31.00;;;;;;;0.25;86.92;100385.13;5016657;28;20033;-68
2021/03/02 05:15:26;;;;;;;90.70;30.70;;;;;;;0.32;86.82;100378.72;5016996;28;20287;-68
2021/03/02 05:17:52;;;;;;;89.63;31.37;;;;;;;0.37;86.71;100373.13;5016447;28;20359;-68
2021/03/02 05:20:17;;;;;;;92.07;34.33;;;;;;;0.42;86.33;100378.38;5015251;28;20036;-68
2021/03/02 05:22:43;;;;;;;77.93;30.43;;;;;;;0.49;85.96;100377.88;5016863;28;20374;-68
2021/03/02 05:25:08;;;;;;;78.00;31.07;;;;;;;0.54;86.38;100381.50;5015261;28;20041;-68
2021/03/02 05:27:34;;;;;;;73.07;26.67;;;;;;;0.56;85.86;100384.09;5016515;28;20030;-68
2021/03/02 05:29:59;;;;;;;70.90;26.03;;;;;;;0.62;85.62;100381.88;5015205;28;20084;-67
2021/03/02 05:32:24;;;;;;;72.37;27.43;;;;;;;0.62;85.92;100380.22;5017074;28;20036;-69
2021/03/02 05:34:50;;;;;;;64.40;24.00;;;;;;;0.65;85.85;100376.97;5016139;28;20311;-67
2021/03/02 05:37:15;;;;;;;70.77;23.33;;;;;;;0.69;85.98;100377.19;5016155;28;20029;-69
2021/03/02 05:39:41;;;;;;;58.13;22.77;;;;;;;0.76;86.03;100374.19;5014902;28;20033;-69
2021/03/02 05:42:07;;;;;;;64.17;26.83;;;;;;;0.79;85.84;100373.44;5016360;28;20084;-69
2021/03/02 05:44:33;;;;;;;60.67;24.43;;;;;;;0.86;85.90;100381.38;5016899;28;20029;-67
2021/03/02 05:46:59;;;;;;;60.07;23.13;;;;;;;0.89;85.68;100373.94;5015211;28;20038;-69
2021/03/02 05:49:26;;;;;;;116.17;45.30;;;;;;;0.88;86.27;100371.38;5016026;28;20068;-69
2021/03/02 05:51:52;;;;;;;106.73;41.13;;;;;;;0.95;86.18;100385.13;5020395;28;20041;-69
2021/03/02 05:54:19;;;;;;;71.70;27.00;;;;;;;1.06;86.66;100392.41;5020697;28;20017;-67
2021/03/02 05:56:44;;;;;;;78.87;27.17;;;;;;;1.14;86.53;100400.38;5019364;28;20036;-68
2021/03/02 05:59:10;;;;;;;60.23;24.07;;;;;;;1.18;86.55;100412.34;5019343;28;20363;-68
2021/03/02 06:01:36;;;;;;;59.90;23.20;;;;;;;1.24;86.74;100407.56;5020344;28;20026;-68
2021/03/02 06:04:03;;;;;;;67.40;25.93;;;;;;;1.26;86.75;100401.81;5019832;28;20033;-68
2021/03/02 06:06:28;;;;;;;66.83;26.07;;;;;;;1.41;86.78;100411.72;5018758;28;20112;-68
2021/03/02 06:08:54;;;;;;;75.47;27.53;;;;;;;1.46;86.20;100411.94;5019797;28;20152;-68
2021/03/02 06:11:31;;;;;;;59.00;25.10;;;;;;;1.57;85.68;100416.69;5019869;28;20026;-68
2021/03/02 06:14:16;;;;;;;65.30;26.93;;;;;;;1.54;84.73;100411.50;5020236;28;20034;-68
2021/03/02 06:16:52;;;;;;;58.10;24.42;;;;;;;1.67;84.41;100411.25;5018044;28;20040;-68
2021/03/02 06:19:34;;;;;;;63.43;23.60;;;;;;;1.64;84.20;100416.19;5019222;28;20088;-70
2021/03/02 06:21:59;;;;;;;64.40;25.90;;;;;;;1.67;83.94;100416.31;5018413;28;20018;-71
2021/03/02 06:24:36;;;;;;;58.07;25.43;;;;;;;1.81;83.80;100425.38;5023240;28;20049;-71
2021/03/02 06:27:10;;;;;;;56.53;23.37;;;;;;;1.82;83.50;100427.09;4998630;28;20045;-70
2021/03/02 06:29:35;;;;;;;52.77;22.33;;;;;;;1.78;83.64;100424.38;5020473;28;20122;-72
2021/03/02 06:32:01;;;;;;;51.90;22.23;;;;;;;1.82;83.26;100429.63;5002571;28;20053;-70
2021/03/02 06:34:27;;;;;;;55.33;22.43;;;;;;;1.91;83.26;100439.28;5018933;28;20312;-70
2021/03/02 06:36:52;;;;;;;56.33;22.07;;;;;;;1.88;83.20;100438.28;5018941;28;20117;-70
2021/03/02 06:39:34;;;;;;;59.30;23.83;;;;;;;1.99;83.02;100443.03;5019054;28;20077;-70
2021/03/02 06:42:21;;;;;;;67.33;26.33;;;;;;;2.02;83.27;100437.22;4998783;28;20442;-70
2021/03/02 06:45:08;;;;;;;204.67;82.87;;;;;;;1.97;83.05;100436.16;4994751;28;20100;-70
2021/03/02 06:47:36;;;;;;;54.07;23.37;;;;;;;2.02;82.71;100442.28;5016185;28;20125;-70
2021/03/02 06:50:09;;;;;;;57.33;23.57;;;;;;;2.02;82.14;100450.75;5019603;28;20108;-70
2021/03/02 06:52:37;;;;;;;55.33;24.40;;;;;;;2.04;82.87;100453.31;5005542;28;20053;-67
2021/03/02 06:55:04;;;;;;;53.77;21.37;;;;;;;2.03;82.54;100444.03;5018548;28;20030;-67
2021/03/02 06:57:30;;;;;;;72.37;26.67;;;;;;;2.04;82.93;100458.38;5018956;28;20029;-70
2021/03/02 07:00:02;;;;;;;64.43;25.67;;;;;;;2.07;82.50;100454.34;5018298;28;20330;-70
2021/03/02 07:02:32;;;;;;;62.33;24.53;;;;;;;2.05;82.01;100457.59;5016937;28;20133;-70
2021/03/02 07:05:17;;;;;;;60.17;24.40;;;;;;;2.08;82.04;100457.75;5019431;28;20037;-70
2021/03/02 07:07:54;;;;;;;60.28;25.15;;;;;;;2.09;81.62;100462.84;5013051;28;20033;-70
2021/03/02 07:10:19;;;;;;;64.90;24.63;;;;;;;2.06;81.45;100462.72;5018358;28;20053;-70
2021/03/02 07:12:45;;;;;;;57.83;23.53;;;;;;;2.10;81.96;100478.91;5017014;28;20053;-69
2021/03/02 07:15:13;;;;;;;64.50;25.17;;;;;;;2.11;81.12;100476.47;5017763;28;20073;-69
2021/03/02 07:17:44;;;;;;;56.57;24.60;;;;;;;2.21;80.85;100467.56;5016397;28;20137;-70
2021/03/02 07:20:11;;;;;;;53.67;21.83;;;;;;;2.20;80.56;100474.34;5018206;28;20036;-67
2021/03/02 07:22:39;;;;;;;69.33;26.13;;;;;;;2.22;80.63;100474.38;5016826;28;20405;-69
2021/03/02 07:25:09;;;;;;;55.93;23.67;;;;;;;2.22;80.64;100469.31;5011936;28;20112;-69
2021/03/02 07:27:41;;;;;;;51.67;22.33;;;;;;;2.28;80.40;100467.06;5018272;28;20061;-70
2021/03/02 07:30:09;;;;;;;57.00;22.63;;;;;;;2.29;80.59;100471.34;5000839;28;20116;-69
2021/03/02 07:32:35;;;;;;;59.67;23.83;;;;;;;2.40;80.51;100472.66;5000897;28;20327;-70
2021/03/02 07:35:01;;;;;;;144.87;53.80;;;;;;;2.36;80.77;100472.44;5002384;28;20407;-69
2021/03/02 07:37:26;;;;;;;51.47;21.07;;;;;;;2.32;80.80;100466.41;5009084;28;20101;-69
2021/03/02 07:39:59;;;;;;;60.27;25.13;;;;;;;2.30;80.76;100468.84;5017778;28;20029;-69
2021/03/02 07:42:24;;;;;;;54.27;22.83;;;;;;;2.22;81.04;100467.66;5017462;28;20060;-69
2021/03/02 07:45:17;;;;;;;65.27;24.07;;;;;;;2.26;81.36;100474.59;5017334;28;20065;-68
2021/03/02 07:47:51;;;;;;;62.27;25.63;;;;;;;2.30;81.98;100476.44;5013371;28;20168;-69
2021/03/02 07:50:20;;;;;;;56.57;24.33;;;;;;;2.30;82.21;100480.63;5016857;28;20268;-69
2021/03/02 07:52:47;;;;;;;62.13;24.77;;;;;;;2.37;81.48;100475.06;5015523;28;20403;-69
2021/03/02 07:55:24;;;;;;;71.03;26.63;;;;;;;2.53;81.40;100477.44;4998848;28;20022;-68
2021/03/02 07:58:16;;;;;;;79.47;30.03;;;;;;;2.74;80.83;100483.41;5016813;28;20331;-69
2021/03/02 08:00:43;;;;;;;69.80;29.47;;;;;;;2.79;80.48;100480.19;5017507;28;20076;-69
2021/03/02 08:03:25;;;;;;;65.03;27.07;;;;;;;2.83;79.94;100482.94;5016530;28;20049;-70
2021/03/02 08:05:55;;;;;;;70.33;24.23;;;;;;;2.79;80.27;100476.00;5017224;28;20113;-69
2021/03/02 08:08:23;;;;;;;61.70;25.90;;;;;;;2.84;80.10;100476.19;5017258;28;20038;-70
2021/03/02 08:11:31;;;;;;;61.00;25.03;;;;;;;2.86;79.79;100485.56;5016544;28;20104;-69
2021/03/02 08:13:58;;;;;;;66.40;26.30;;;;;;;2.73;80.13;100481.66;5015489;28;20060;-69
2021/03/02 08:16:55;;;;;;;62.73;22.37;;;;;;;2.85;79.86;100478.78;5015622;28;20368;-68
2021/03/02 08:19:33;;;;;;;71.63;27.23;;;;;;;2.98;78.98;100481.00;5014522;28;20091;-69
2021/03/02 08:21:59;;;;;;;66.10;26.20;;;;;;;3.04;78.62;100477.88;5010195;28;20434;-69
2021/03/02 08:25:04;;;;;;;65.93;27.47;;;;;;;3.14;78.62;100465.63;5013811;28;20061;-68
2021/03/02 08:27:52;;;;;;;64.30;27.30;;;;;;;3.21;78.45;100471.81;4918493;29;20129;-69
2021/03/02 08:30:23;;;;;;;67.10;28.27;;;;;;;3.33;78.11;100472.28;4918711;29;20151;-68
2021/03/02 08:32:49;;;;;;;74.37;30.63;;;;;;;3.20;77.41;100457.41;4917504;29;20052;-68
2021/03/02 08:35:16;;;;;;;66.83;25.67;;;;;;;3.29;78.20;100475.50;4918451;29;20115;-69
2021/03/02 08:37:44;;;;;;;66.07;25.37;;;;;;;3.42;77.93;100477.72;4917352;29;20051;-68
2021/03/02 08:40:11;;;;;;;61.00;25.00;;;;;;;3.59;77.64;100478.38;4917269;29;20070;-68
2021/03/02 08:42:57;;;;;;;61.37;23.20;;;;;;;3.52;78.01;100469.66;4916483;29;20040;-69
2021/03/02 08:45:23;;;;;;;;;;;;;;;3.78;77.27;100467.25;4918401;29;20566;-68
2021/03/02 08:47:48;;;;;;;54.83;22.10;;;;;;;3.80;76.62;100470.72;4916450;29;19930;-68
2021/03/02 08:50:14;;;;;;;48.57;20.80;;;;;;;3.86;76.38;100464.16;4918275;29;20362;-69
2021/03/02 08:52:40;;;;;;;49.90;19.40;;;;;;;4.09;76.16;100465.03;4916901;29;20404;-69
2021/03/02 08:55:07;;;;;;;48.03;20.43;;;;;;;4.30;75.51;100473.41;4902007;29;20476;-69
2021/03/02 08:57:45;;;;;;;50.17;19.20;;;;;;;4.27;75.39;100475.84;4901157;29;20059;-68
2021/03/02 09:00:15;;;;;;;59.17;22.93;;;;;;;4.43;74.92;100467.94;4901036;28;20599;-69
2021/03/02 09:02:42;;;;;;;52.47;21.40;;;;;;;4.43;74.09;100474.69;5020908;28;20061;-69
2021/03/02 09:05:19;;;;;;;54.77;21.80;;;;;;;4.43;74.01;100483.19;4994867;28;20030;-69
2021/03/02 09:08:09;;;;;;;57.90;23.67;;;;;;;4.44;74.34;100471.34;4995022;28;20367;-68
2021/03/02 09:10:38;;;;;;;60.67;25.47;;;;;;;4.36;74.95;100473.63;4995638;28;20379;-69
2021/03/02 09:13:06;;;;;;;59.27;25.53;;;;;;;4.34;74.67;100479.44;4997090;28;20122;-68
2021/03/02 09:15:36;;;;;;;79.73;29.83;;;;;;;3.82;76.58;100476.72;4995643;28;20061;-69
2021/03/02 09:18:15;;;;;;;67.13;27.87;;;;;;;3.11;79.59;100470.56;4993590;28;20376;-69
2021/03/02 09:20:54;;;;;;;70.40;25.70;;;;;;;3.30;79.13;100472.19;4995229;28;20034;-69
2021/03/02 09:23:19;;;;;;;66.80;24.57;;;;;;;3.83;78.43;100469.13;4997307;28;20030;-68
2021/03/02 09:25:45;;;;;;;66.90;28.80;;;;;;;3.99;77.00;100478.16;4993047;28;20356;-68
2021/03/02 09:28:18;;;;;;;74.63;27.00;;;;;;;4.42;75.33;100481.44;4994960;28;20034;-69
2021/03/02 09:30:44;;;;;;;59.17;23.57;;;;;;;4.51;74.11;100479.25;4994614;28;20113;-68
2021/03/02 09:33:14;;;;;;;60.73;24.67;;;;;;;4.59;74.26;100479.50;4995323;28;20121;-69
2021/03/02 09:35:41;;;;;;;64.37;25.37;;;;;;;4.48;74.08;100478.28;4993152;28;20053;-68
2021/03/02 09:38:07;;;;;;;61.30;25.87;;;;;;;4.40;74.27;100483.09;4995740;28;20089;-69
2021/03/02 09:40:42;;;;;;;59.57;23.37;;;;;;;4.54;74.14;100479.34;4995663;28;20323;-69
2021/03/02 09:43:09;;;;;;;71.17;29.40;;;;;;;4.72;73.56;100474.03;4994424;28;20041;-68
2021/03/02 09:45:34;;;;;;;67.97;28.50;;;;;;;4.63;73.03;100478.78;4994413;28;20029;-68
2021/03/02 09:48:07;;;;;;;56.27;22.60;;;;;;;4.76;72.74;100473.31;5005808;28;20054;-68
2021/03/02 09:50:37;;;;;;;54.40;23.20;;;;;;;4.99;72.04;100480.03;4998346;28;20275;-68
2021/03/02 09:53:17;;;;;;;60.73;26.03;;;;;;;4.99;71.92;100477.50;5012312;28;20291;-69
2021/03/02 09:55:45;;;;;;;59.20;24.30;;;;;;;4.89;71.70;100477.13;4992226;28;20069;-67
2021/03/02 09:58:14;;;;;;;66.67;27.13;;;;;;;5.03;71.46;100474.25;5006277;28;20038;-65
2021/03/02 10:00:45;;;;;;;59.17;27.70;;;;;;;5.31;71.00;100478.53;5023536;28;20417;-65
2021/03/02 10:03:24;;;;;;;66.10;26.67;;;;;;;5.28;71.15;100475.88;5019019;28;20092;-67
2021/03/02 10:06:04;;;;;;;52.13;23.93;;;;;;;5.58;69.74;100472.56;5014680;28;20053;-65
2021/03/02 10:08:33;;;;;;;58.43;23.37;;;;;;;5.32;69.94;100479.38;4999874;28;20045;-65
2021/03/02 10:11:03;;;;;;;60.13;27.40;;;;;;;5.40;70.95;100476.25;4999143;28;20057;-66
2021/03/02 10:13:30;;;;;;;51.57;24.50;;;;;;;5.55;69.26;100480.97;5019167;28;20041;-64
2021/03/02 10:16:14;;;;;;;66.23;25.17;;;;;;;5.50;69.36;100478.28;5016553;28;20030;-66
2021/03/02 10:19:00;;;;;;;63.20;24.23;;;;;;;5.73;68.70;100470.50;5013648;28;20318;-66
2021/03/02 10:21:30;;;;;;;57.87;24.93;;;;;;;5.80;68.90;100469.84;5000110;28;20022;-66
2021/03/02 10:23:58;;;;;;;62.27;26.10;;;;;;;5.85;68.55;100464.09;5016520;28;20038;-65
2021/03/02 10:26:27;;;;;;;64.47;24.67;;;;;;;5.46;69.59;100467.97;5016250;28;20084;-65
2021/03/02 10:28:53;;;;;;;57.93;22.57;;;;;;;5.30;70.12;100469.19;5017694;28;20057;-67
2021/03/02 10:31:19;;;;;;;65.53;26.90;;;;;;;5.42;70.38;100469.56;5019266;28;20041;-66
2021/03/02 10:33:46;;;;;;;55.90;24.30;;;;;;;5.49;70.33;100465.50;5017137;28;20446;-68
2021/03/02 10:36:23;;;;;;;58.13;24.73;;;;;;;5.31;70.39;100465.81;5015870;28;20097;-66
2021/03/02 10:38:50;;;;;;;49.50;21.77;;;;;;;5.21;71.53;100461.25;5021173;28;20096;-67
2021/03/02 10:41:18;;;;;;;55.00;22.73;;;;;;;4.71;73.13;100468.91;4985940;28;20332;-68
2021/03/02 10:43:44;;;;;;;64.20;27.60;;;;;;;4.77;73.03;100458.94;5020067;28;20065;-66
2021/03/02 10:46:10;;;;;;;65.33;26.03;;;;;;;5.10;72.47;100454.97;5019050;28;20053;-65
2021/03/02 10:48:35;;;;;;;49.70;21.83;;;;;;;5.47;71.81;100457.00;5002476;28;20060;-66
2021/03/02 10:51:03;;;;;;;64.23;27.53;;;;;;;5.75;70.50;100448.50;5020560;28;20363;-67
2021/03/02 10:53:28;;;;;;;59.07;25.67;;;;;;;5.69;69.75;100458.47;4985691;28;20354;-67
2021/03/02 10:55:53;;;;;;;54.63;22.90;;;;;;;5.69;69.35;100435.56;5018452;28;20040;-68
2021/03/02 10:58:19;;;;;;;55.07;21.00;;;;;;;5.74;69.23;100456.94;5009418;28;20041;-67
2021/03/02 11:00:45;;;;;;;59.50;24.47;;;;;;;5.37;70.87;100445.66;5020149;28;20040;-67
2021/03/02 11:03:10;;;;;;;65.87;25.23;;;;;;;4.98;71.75;100441.84;5018691;28;20060;-68
2021/03/02 11:05:36;;;;;;;60.83;25.77;;;;;;;5.19;72.57;100441.66;5019699;28;20061;-68
2021/03/02 11:08:02;;;;;;;58.20;25.67;;;;;;;5.76;70.88;100442.59;5019346;28;20037;-68
2021/03/02 11:10:28;;;;;;;48.33;20.87;;;;;;;5.83;70.18;100429.22;5019215;28;20038;-69
2021/03/02 11:12:53;;;;;;;187.97;72.07;;;;;;;5.99;68.87;100433.94;5013226;28;20030;-68
2021/03/02 11:15:19;;;;;;;206.10;78.17;;;;;;;6.24;68.85;100435.47;5000864;28;20030;-68
2021/03/02 11:17:44;;;;;;;55.47;23.90;;;;;;;6.35;67.89;100424.78;5018674;28;20076;-68
2021/03/02 11:20:10;;;;;;;61.10;24.33;;;;;;;6.45;67.87;100420.78;5019028;28;20028;-69
2021/03/02 11:22:35;;;;;;;55.50;23.03;;;;;;;6.64;67.05;100423.00;5019180;28;20087;-69
2021/03/02 11:25:01;;;;;;;48.27;21.13;;;;;;;6.74;66.01;100413.91;5018631;28;20114;-69